Eupora, Mississippi
Current Conditions -  °F | °C
As of 6:15 AM on Monday 26 Jan 2015 (Local Time) from KSTF Reporting Station
Overcast Overcast  
Wind Chill: 37°   Ceiling: 2200
Heat Index: 43°   Visibility: 10mi
Dew Point: 36°   Wind: 12mph
Humidity: 76%   Direction: 320°NW
Pressure: 30.01"   Gusts: 18mph
Location:  33.54°N, 89.27°W
Report Text: KSTF 261215Z AUTO 32010G16KT 10SM OVC022 06/02 A3001 RMK AO2
Loading
Personal Weather Stations






























Interactive Weather Map New forecast layout! Learn more

10-Day Weather Forecast

Advertisements
Track Severe Weather on mobile